sensor_id;sensor_type;location;lat;lon;timestamp;temperature;humidity
74901;DHT22;63461;51.416;6.758;2023-03-23T00:01:15;12.70;99.90
74901;DHT22;63461;51.416;6.758;2023-03-23T00:03:49;12.70;99.90
74901;DHT22;63461;51.416;6.758;2023-03-23T00:06:16;12.70;99.90
74901;DHT22;63461;51.416;6.758;2023-03-23T00:08:45;12.70;99.90
74901;DHT22;63461;51.416;6.758;2023-03-23T00:11:21;12.70;99.90
74901;DHT22;63461;51.416;6.758;2023-03-23T00:13:49;12.70;99.90
74901;DHT22;63461;51.416;6.758;2023-03-23T00:16:24;12.70;99.90
74901;DHT22;63461;51.416;6.758;2023-03-23T00:19:01;12.70;99.90
74901;DHT22;63461;51.416;6.758;2023-03-23T00:21:31;12.70;99.90
74901;DHT22;63461;51.416;6.758;2023-03-23T00:24:07;12.70;99.90
74901;DHT22;63461;51.416;6.758;2023-03-23T00:26:35;12.70;99.90
74901;DHT22;63461;51.416;6.758;2023-03-23T00:31:39;12.70;99.90
74901;DHT22;63461;51.416;6.758;2023-03-23T00:34:06;12.60;99.90
74901;DHT22;63461;51.416;6.758;2023-03-23T00:36:33;12.60;99.90
74901;DHT22;63461;51.416;6.758;2023-03-23T00:39:03;12.60;99.90
74901;DHT22;63461;51.416;6.758;2023-03-23T00:41:30;12.60;99.90
74901;DHT22;63461;51.416;6.758;2023-03-23T00:43:57;12.60;99.90
74901;DHT22;63461;51.416;6.758;2023-03-23T00:46:27;12.60;99.90
74901;DHT22;63461;51.416;6.758;2023-03-23T00:48:54;12.60;99.90
74901;DHT22;63461;51.416;6.758;2023-03-23T00:51:20;12.60;99.90
74901;DHT22;63461;51.416;6.758;2023-03-23T00:53:46;12.60;99.90
74901;DHT22;63461;51.416;6.758;2023-03-23T00:56:13;12.60;99.90
74901;DHT22;63461;51.416;6.758;2023-03-23T00:58:39;12.60;99.90
74901;DHT22;63461;51.416;6.758;2023-03-23T01:01:05;12.60;99.90
74901;DHT22;63461;51.416;6.758;2023-03-23T01:03:31;12.60;99.90
74901;DHT22;63461;51.416;6.758;2023-03-23T01:06:04;12.60;99.90
74901;DHT22;63461;51.416;6.758;2023-03-23T01:08:30;12.60;99.90
74901;DHT22;63461;51.416;6.758;2023-03-23T01:11:05;12.60;99.90
74901;DHT22;63461;51.416;6.758;2023-03-23T01:13:31;12.60;99.90
74901;DHT22;63461;51.416;6.758;2023-03-23T01:15:57;12.60;99.90
74901;DHT22;63461;51.416;6.758;2023-03-23T01:18:23;12.60;99.90
74901;DHT22;63461;51.416;6.758;2023-03-23T01:20:48;12.60;99.90
74901;DHT22;63461;51.416;6.758;2023-03-23T01:23:14;12.60;99.90
74901;DHT22;63461;51.416;6.758;2023-03-23T01:25:40;12.60;99.90
74901;DHT22;63461;51.416;6.758;2023-03-23T01:28:06;12.60;99.90
74901;DHT22;63461;51.416;6.758;2023-03-23T01:30:32;12.60;99.90
74901;DHT22;63461;51.416;6.758;2023-03-23T01:32:58;12.50;99.90
74901;DHT22;63461;51.416;6.758;2023-03-23T01:35:24;12.60;99.90
74901;DHT22;63461;51.416;6.758;2023-03-23T01:37:51;12.60;99.90
74901;DHT22;63461;51.416;6.758;2023-03-23T01:40:16;12.60;99.90
74901;DHT22;63461;51.416;6.758;2023-03-23T01:42:43;12.60;99.90
74901;DHT22;63461;51.416;6.758;2023-03-23T01:47:55;12.60;99.90
74901;DHT22;63461;51.416;6.758;2023-03-23T01:50:22;12.60;99.90
74901;DHT22;63461;51.416;6.758;2023-03-23T01:52:51;12.60;99.90
74901;DHT22;63461;51.416;6.758;2023-03-23T01:55:18;12.60;99.90
74901;DHT22;63461;51.416;6.758;2023-03-23T01:57:47;12.60;99.90
74901;DHT22;63461;51.416;6.758;2023-03-23T02:00:15;12.60;99.90
74901;DHT22;63461;51.416;6.758;2023-03-23T02:02:46;12.70;99.90
74901;DHT22;63461;51.416;6.758;2023-03-23T02:05:19;12.70;99.90
74901;DHT22;63461;51.416;6.758;2023-03-23T02:07:47;12.70;99.90
74901;DHT22;63461;51.416;6.758;2023-03-23T02:10:14;12.70;99.90
74901;DHT22;63461;51.416;6.758;2023-03-23T02:12:42;12.60;99.90
74901;DHT22;63461;51.416;6.758;2023-03-23T02:15:08;12.70;99.90
74901;DHT22;63461;51.416;6.758;2023-03-23T02:17:47;12.60;99.90
74901;DHT22;63461;51.416;6.758;2023-03-23T02:20:38;12.60;99.90
74901;DHT22;63461;51.416;6.758;2023-03-23T02:25:56;12.60;99.90
74901;DHT22;63461;51.416;6.758;2023-03-23T02:28:55;12.60;99.90
74901;DHT22;63461;51.416;6.758;2023-03-23T02:31:51;12.60;99.90
74901;DHT22;63461;51.416;6.758;2023-03-23T02:34:30;12.50;99.90
74901;DHT22;63461;51.416;6.758;2023-03-23T02:37:08;12.50;99.90
74901;DHT22;63461;51.416;6.758;2023-03-23T02:39:43;12.50;99.90
74901;DHT22;63461;51.416;6.758;2023-03-23T02:42:15;12.50;99.90
74901;DHT22;63461;51.416;6.758;2023-03-23T02:44:44;12.50;99.90
74901;DHT22;63461;51.416;6.758;2023-03-23T02:47:18;12.40;99.90
74901;DHT22;63461;51.416;6.758;2023-03-23T02:49:47;12.40;99.90
74901;DHT22;63461;51.416;6.758;2023-03-23T02:52:23;12.40;99.90
74901;DHT22;63461;51.416;6.758;2023-03-23T02:54:53;12.40;99.90
74901;DHT22;63461;51.416;6.758;2023-03-23T02:57:21;12.40;99.90
74901;DHT22;63461;51.416;6.758;2023-03-23T02:59:48;12.40;99.90
74901;DHT22;63461;51.416;6.758;2023-03-23T03:02:32;12.40;99.90
74901;DHT22;63461;51.416;6.758;2023-03-23T03:16:34;12.50;99.90
74901;DHT22;63461;51.416;6.758;2023-03-23T03:19:24;12.40;99.90
74901;DHT22;63461;51.416;6.758;2023-03-23T03:21:54;12.40;99.90
74901;DHT22;63461;51.416;6.758;2023-03-23T03:24:31;12.40;99.90
74901;DHT22;63461;51.416;6.758;2023-03-23T03:27:00;12.50;99.90
74901;DHT22;63461;51.416;6.758;2023-03-23T03:29:40;12.40;99.90
74901;DHT22;63461;51.416;6.758;2023-03-23T03:32:12;12.40;99.90
74901;DHT22;63461;51.416;6.758;2023-03-23T03:34:40;12.50;99.90
74901;DHT22;63461;51.416;6.758;2023-03-23T03:37:07;12.40;99.90
74901;DHT22;63461;51.416;6.758;2023-03-23T03:39:35;12.40;99.90
74901;DHT22;63461;51.416;6.758;2023-03-23T03:42:04;12.40;99.90
74901;DHT22;63461;51.416;6.758;2023-03-23T03:44:30;12.50;99.90
74901;DHT22;63461;51.416;6.758;2023-03-23T03:46:56;12.40;99.90
74901;DHT22;63461;51.416;6.758;2023-03-23T03:49:22;12.40;99.90
74901;DHT22;63461;51.416;6.758;2023-03-23T03:51:49;12.50;99.90
74901;DHT22;63461;51.416;6.758;2023-03-23T03:54:22;12.40;99.90
74901;DHT22;63461;51.416;6.758;2023-03-23T03:56:48;12.50;99.90
74901;DHT22;63461;51.416;6.758;2023-03-23T03:59:36;12.50;99.90
74901;DHT22;63461;51.416;6.758;2023-03-23T04:02:27;12.50;99.90
74901;DHT22;63461;51.416;6.758;2023-03-23T04:04:54;12.50;99.90
74901;DHT22;63461;51.416;6.758;2023-03-23T04:07:20;12.50;99.90
74901;DHT22;63461;51.416;6.758;2023-03-23T04:09:47;12.50;99.90
74901;DHT22;63461;51.416;6.758;2023-03-23T04:12:15;12.50;99.90
74901;DHT22;63461;51.416;6.758;2023-03-23T04:15:10;12.50;99.90
74901;DHT22;63461;51.416;6.758;2023-03-23T04:17:36;12.50;99.90
74901;DHT22;63461;51.416;6.758;2023-03-23T04:20:04;12.50;99.90
74901;DHT22;63461;51.416;6.758;2023-03-23T04:22:37;12.60;99.90
74901;DHT22;63461;51.416;6.758;2023-03-23T04:25:03;12.60;99.90
74901;DHT22;63461;51.416;6.758;2023-03-23T04:27:34;12.50;99.90
74901;DHT22;63461;51.416;6.758;2023-03-23T04:30:02;12.60;99.90
74901;DHT22;63461;51.416;6.758;2023-03-23T04:32:45;12.60;99.90
74901;DHT22;63461;51.416;6.758;2023-03-23T04:35:18;12.60;99.90
74901;DHT22;63461;51.416;6.758;2023-03-23T04:37:49;12.50;99.90
74901;DHT22;63461;51.416;6.758;2023-03-23T04:40:19;12.60;99.90
74901;DHT22;63461;51.416;6.758;2023-03-23T04:42:54;12.60;99.90
74901;DHT22;63461;51.416;6.758;2023-03-23T04:45:37;12.60;99.90
74901;DHT22;63461;51.416;6.758;2023-03-23T04:48:04;12.60;99.90
74901;DHT22;63461;51.416;6.758;2023-03-23T04:50:43;12.60;99.90
74901;DHT22;63461;51.416;6.758;2023-03-23T04:53:18;12.60;99.90
74901;DHT22;63461;51.416;6.758;2023-03-23T04:55:45;12.60;99.90
74901;DHT22;63461;51.416;6.758;2023-03-23T04:58:14;12.60;99.90
74901;DHT22;63461;51.416;6.758;2023-03-23T05:00:56;12.60;99.90
74901;DHT22;63461;51.416;6.758;2023-03-23T05:03:24;12.60;99.90
74901;DHT22;63461;51.416;6.758;2023-03-23T05:05:53;12.60;99.90
74901;DHT22;63461;51.416;6.758;2023-03-23T05:08:21;12.60;99.90
74901;DHT22;63461;51.416;6.758;2023-03-23T05:10:55;12.60;99.90
74901;DHT22;63461;51.416;6.758;2023-03-23T05:13:24;12.60;99.90
74901;DHT22;63461;51.416;6.758;2023-03-23T05:15:53;12.60;99.90
74901;DHT22;63461;51.416;6.758;2023-03-23T05:18:19;12.60;99.90
74901;DHT22;63461;51.416;6.758;2023-03-23T05:20:46;12.60;99.90
74901;DHT22;63461;51.416;6.758;2023-03-23T05:23:18;12.60;99.90
74901;DHT22;63461;51.416;6.758;2023-03-23T05:25:55;12.60;99.90
74901;DHT22;63461;51.416;6.758;2023-03-23T05:28:22;12.60;99.90
74901;DHT22;63461;51.416;6.758;2023-03-23T05:30:55;12.60;99.90
74901;DHT22;63461;51.416;6.758;2023-03-23T05:33:22;12.60;99.90
74901;DHT22;63461;51.416;6.758;2023-03-23T05:35:53;12.60;99.90
74901;DHT22;63461;51.416;6.758;2023-03-23T05:38:24;12.60;99.90
74901;DHT22;63461;51.416;6.758;2023-03-23T05:40:51;12.60;99.90
74901;DHT22;63461;51.416;6.758;2023-03-23T05:43:24;12.60;99.90
74901;DHT22;63461;51.416;6.758;2023-03-23T05:46:05;12.60;99.90
74901;DHT22;63461;51.416;6.758;2023-03-23T05:48:31;12.60;99.90
74901;DHT22;63461;51.416;6.758;2023-03-23T05:50:57;12.60;99.90
74901;DHT22;63461;51.416;6.758;2023-03-23T05:53:24;12.60;99.90
74901;DHT22;63461;51.416;6.758;2023-03-23T05:55:50;12.60;99.90
74901;DHT22;63461;51.416;6.758;2023-03-23T05:58:30;12.60;99.90
74901;DHT22;63461;51.416;6.758;2023-03-23T06:00:57;12.60;99.90
74901;DHT22;63461;51.416;6.758;2023-03-23T06:03:27;12.60;99.90
74901;DHT22;63461;51.416;6.758;2023-03-23T06:06:02;12.60;99.90
74901;DHT22;63461;51.416;6.758;2023-03-23T06:08:37;12.60;99.90
74901;DHT22;63461;51.416;6.758;2023-03-23T06:11:04;12.60;99.90
74901;DHT22;63461;51.416;6.758;2023-03-23T06:13:34;12.60;99.90
74901;DHT22;63461;51.416;6.758;2023-03-23T06:16:06;12.60;99.90
74901;DHT22;63461;51.416;6.758;2023-03-23T06:19:05;12.60;99.90
74901;DHT22;63461;51.416;6.758;2023-03-23T06:21:36;12.60;99.90
74901;DHT22;63461;51.416;6.758;2023-03-23T06:24:17;12.60;99.90
74901;DHT22;63461;51.416;6.758;2023-03-23T06:26:42;12.70;99.90
74901;DHT22;63461;51.416;6.758;2023-03-23T06:29:15;12.70;99.90
74901;DHT22;63461;51.416;6.758;2023-03-23T06:31:50;12.70;99.90
74901;DHT22;63461;51.416;6.758;2023-03-23T06:34:17;12.70;99.90
74901;DHT22;63461;51.416;6.758;2023-03-23T06:37:01;12.70;99.90
74901;DHT22;63461;51.416;6.758;2023-03-23T06:39:38;12.70;99.90
74901;DHT22;63461;51.416;6.758;2023-03-23T06:42:26;12.70;99.90
74901;DHT22;63461;51.416;6.758;2023-03-23T06:45:15;12.70;99.90
74901;DHT22;63461;51.416;6.758;2023-03-23T06:47:42;12.70;99.90
74901;DHT22;63461;51.416;6.758;2023-03-23T06:50:09;12.80;99.90
74901;DHT22;63461;51.416;6.758;2023-03-23T06:52:36;12.80;99.90
74901;DHT22;63461;51.416;6.758;2023-03-23T06:55:02;12.80;99.90
74901;DHT22;63461;51.416;6.758;2023-03-23T06:57:27;12.80;99.90
74901;DHT22;63461;51.416;6.758;2023-03-23T06:59:54;12.90;99.90
74901;DHT22;63461;51.416;6.758;2023-03-23T07:02:23;12.90;99.90
74901;DHT22;63461;51.416;6.758;2023-03-23T07:04:51;12.90;99.90
74901;DHT22;63461;51.416;6.758;2023-03-23T07:07:26;12.80;99.90
74901;DHT22;63461;51.416;6.758;2023-03-23T07:10:08;12.90;99.90
74901;DHT22;63461;51.416;6.758;2023-03-23T07:12:38;12.90;99.90
74901;DHT22;63461;51.416;6.758;2023-03-23T07:15:06;12.90;99.90
74901;DHT22;63461;51.416;6.758;2023-03-23T07:17:36;12.90;99.90
74901;DHT22;63461;51.416;6.758;2023-03-23T07:20:11;12.90;99.90
74901;DHT22;63461;51.416;6.758;2023-03-23T07:22:37;12.90;99.90
74901;DHT22;63461;51.416;6.758;2023-03-23T07:25:12;12.90;99.90
74901;DHT22;63461;51.416;6.758;2023-03-23T07:27:52;13.00;99.90
74901;DHT22;63461;51.416;6.758;2023-03-23T07:30:18;13.00;99.90
74901;DHT22;63461;51.416;6.758;2023-03-23T07:32:44;13.00;99.90
74901;DHT22;63461;51.416;6.758;2023-03-23T07:35:10;13.00;99.90
74901;DHT22;63461;51.416;6.758;2023-03-23T07:37:47;13.00;99.90
74901;DHT22;63461;51.416;6.758;2023-03-23T07:40:15;13.00;99.90
74901;DHT22;63461;51.416;6.758;2023-03-23T07:42:51;13.00;99.90
74901;DHT22;63461;51.416;6.758;2023-03-23T07:45:25;13.00;99.90
74901;DHT22;63461;51.416;6.758;2023-03-23T07:47:52;13.00;99.90
74901;DHT22;63461;51.416;6.758;2023-03-23T07:50:19;13.00;99.90
74901;DHT22;63461;51.416;6.758;2023-03-23T07:52:48;13.00;99.90
74901;DHT22;63461;51.416;6.758;2023-03-23T07:55:16;13.00;99.90
74901;DHT22;63461;51.416;6.758;2023-03-23T07:57:54;13.00;99.90
74901;DHT22;63461;51.416;6.758;2023-03-23T08:00:22;13.00;99.90
74901;DHT22;63461;51.416;6.758;2023-03-23T08:02:55;13.10;99.90
74901;DHT22;63461;51.416;6.758;2023-03-23T08:05:31;13.10;99.90
74901;DHT22;63461;51.416;6.758;2023-03-23T08:08:18;13.10;99.90
74901;DHT22;63461;51.416;6.758;2023-03-23T08:11:03;13.10;99.90
74901;DHT22;63461;51.416;6.758;2023-03-23T08:13:32;13.20;99.90
74901;DHT22;63461;51.416;6.758;2023-03-23T08:16:32;13.20;99.90
74901;DHT22;63461;51.416;6.758;2023-03-23T08:19:18;13.30;99.90
74901;DHT22;63461;51.416;6.758;2023-03-23T08:22:04;13.30;99.90
74901;DHT22;63461;51.416;6.758;2023-03-23T08:24:52;13.30;99.90
74901;DHT22;63461;51.416;6.758;2023-03-23T08:27:38;13.30;99.90
74901;DHT22;63461;51.416;6.758;2023-03-23T08:30:30;13.30;99.90
74901;DHT22;63461;51.416;6.758;2023-03-23T08:33:17;13.40;99.90
74901;DHT22;63461;51.416;6.758;2023-03-23T08:35:57;13.40;99.90
74901;DHT22;63461;51.416;6.758;2023-03-23T08:38:41;13.50;99.90
74901;DHT22;63461;51.416;6.758;2023-03-23T08:41:34;13.50;99.90
74901;DHT22;63461;51.416;6.758;2023-03-23T08:44:21;13.50;99.90
74901;DHT22;63461;51.416;6.758;2023-03-23T08:46:57;13.60;99.90
74901;DHT22;63461;51.416;6.758;2023-03-23T08:50:03;13.60;99.90
74901;DHT22;63461;51.416;6.758;2023-03-23T08:52:49;13.60;99.90
74901;DHT22;63461;51.416;6.758;2023-03-23T08:55:29;13.60;99.90
74901;DHT22;63461;51.416;6.758;2023-03-23T08:58:30;13.60;99.90
74901;DHT22;63461;51.416;6.758;2023-03-23T09:00:59;13.50;99.90
74901;DHT22;63461;51.416;6.758;2023-03-23T09:03:44;13.50;99.90
74901;DHT22;63461;51.416;6.758;2023-03-23T09:06:24;13.40;99.90
74901;DHT22;63461;51.416;6.758;2023-03-23T09:08:50;13.40;99.90
74901;DHT22;63461;51.416;6.758;2023-03-23T09:11:16;13.40;99.90
74901;DHT22;63461;51.416;6.758;2023-03-23T09:13:42;13.40;99.90
74901;DHT22;63461;51.416;6.758;2023-03-23T09:16:08;13.40;99.90
74901;DHT22;63461;51.416;6.758;2023-03-23T09:18:35;13.40;99.90
74901;DHT22;63461;51.416;6.758;2023-03-23T09:21:02;13.40;99.90
74901;DHT22;63461;51.416;6.758;2023-03-23T09:23:29;13.40;99.90
74901;DHT22;63461;51.416;6.758;2023-03-23T09:25:55;13.40;99.90
74901;DHT22;63461;51.416;6.758;2023-03-23T09:28:21;13.40;99.90
74901;DHT22;63461;51.416;6.758;2023-03-23T09:30:47;13.40;99.90
74901;DHT22;63461;51.416;6.758;2023-03-23T09:33:14;13.30;99.90
74901;DHT22;63461;51.416;6.758;2023-03-23T09:35:40;13.40;99.90
74901;DHT22;63461;51.416;6.758;2023-03-23T09:38:08;13.40;99.90
74901;DHT22;63461;51.416;6.758;2023-03-23T09:40:48;13.30;99.90
74901;DHT22;63461;51.416;6.758;2023-03-23T09:53:39;12.30;99.90
74901;DHT22;63461;51.416;6.758;2023-03-23T09:56:15;12.30;99.90
74901;DHT22;63461;51.416;6.758;2023-03-23T09:58:54;12.20;99.90
74901;DHT22;63461;51.416;6.758;2023-03-23T10:01:46;12.30;99.90
74901;DHT22;63461;51.416;6.758;2023-03-23T10:07:21;12.40;99.90
74901;DHT22;63461;51.416;6.758;2023-03-23T10:09:50;12.40;99.90
74901;DHT22;63461;51.416;6.758;2023-03-23T10:15:26;12.30;99.90
74901;DHT22;63461;51.416;6.758;2023-03-23T10:21:02;12.30;99.90
74901;DHT22;63461;51.416;6.758;2023-03-23T10:23:52;12.40;99.90
74901;DHT22;63461;51.416;6.758;2023-03-23T10:31:41;12.20;99.90
74901;DHT22;63461;51.416;6.758;2023-03-23T10:34:21;12.10;99.90
74901;DHT22;63461;51.416;6.758;2023-03-23T10:37:12;12.10;99.90
74901;DHT22;63461;51.416;6.758;2023-03-23T10:39:48;12.30;99.90
74901;DHT22;63461;51.416;6.758;2023-03-23T10:42:41;12.20;99.90
74901;DHT22;63461;51.416;6.758;2023-03-23T10:45:28;12.40;99.90
74901;DHT22;63461;51.416;6.758;2023-03-23T10:48:33;12.30;99.90
74901;DHT22;63461;51.416;6.758;2023-03-23T10:51:04;12.10;99.90
74901;DHT22;63461;51.416;6.758;2023-03-23T10:53:38;12.10;99.90
74901;DHT22;63461;51.416;6.758;2023-03-23T10:56:17;12.10;99.90
74901;DHT22;63461;51.416;6.758;2023-03-23T10:58:44;12.10;99.90
74901;DHT22;63461;51.416;6.758;2023-03-23T11:01:12;12.10;99.90
74901;DHT22;63461;51.416;6.758;2023-03-23T11:03:43;12.10;99.90
74901;DHT22;63461;51.416;6.758;2023-03-23T11:06:23;12.10;99.90
74901;DHT22;63461;51.416;6.758;2023-03-23T11:08:57;12.20;99.90
74901;DHT22;63461;51.416;6.758;2023-03-23T11:11:29;12.00;99.90
74901;DHT22;63461;51.416;6.758;2023-03-23T11:14:01;11.90;99.90
74901;DHT22;63461;51.416;6.758;2023-03-23T11:16:30;12.10;99.90
74901;DHT22;63461;51.416;6.758;2023-03-23T11:18:58;12.20;99.90
74901;DHT22;63461;51.416;6.758;2023-03-23T11:21:25;12.30;99.90
74901;DHT22;63461;51.416;6.758;2023-03-23T11:23:55;12.20;99.90
74901;DHT22;63461;51.416;6.758;2023-03-23T11:26:28;12.20;99.90
74901;DHT22;63461;51.416;6.758;2023-03-23T11:29:21;12.40;99.90
74901;DHT22;63461;51.416;6.758;2023-03-23T11:32:10;12.40;99.90
74901;DHT22;63461;51.416;6.758;2023-03-23T11:34:45;12.40;99.90
74901;DHT22;63461;51.416;6.758;2023-03-23T11:40:01;12.70;99.90
74901;DHT22;63461;51.416;6.758;2023-03-23T11:53:27;12.90;99.90
74901;DHT22;63461;51.416;6.758;2023-03-23T11:56:01;13.10;99.90
74901;DHT22;63461;51.416;6.758;2023-03-23T11:58:29;13.10;99.90
74901;DHT22;63461;51.416;6.758;2023-03-23T12:01:50;13.10;99.90
74901;DHT22;63461;51.416;6.758;2023-03-23T12:12:26;12.70;99.90
74901;DHT22;63461;51.416;6.758;2023-03-23T12:19:55;13.00;99.90
74901;DHT22;63461;51.416;6.758;2023-03-23T12:27:45;13.10;99.90
74901;DHT22;63461;51.416;6.758;2023-03-23T12:30:26;13.00;99.90
74901;DHT22;63461;51.416;6.758;2023-03-23T12:35:49;13.40;99.90
74901;DHT22;63461;51.416;6.758;2023-03-23T12:38:41;13.40;99.90
74901;DHT22;63461;51.416;6.758;2023-03-23T12:43:54;13.50;99.90
74901;DHT22;63461;51.416;6.758;2023-03-23T12:49:04;13.50;99.90
74901;DHT22;63461;51.416;6.758;2023-03-23T12:51:40;13.50;99.90
74901;DHT22;63461;51.416;6.758;2023-03-23T12:56:53;13.50;99.90
74901;DHT22;63461;51.416;6.758;2023-03-23T12:59:45;13.50;99.90
74901;DHT22;63461;51.416;6.758;2023-03-23T13:02:27;13.60;99.90
74901;DHT22;63461;51.416;6.758;2023-03-23T13:05:03;13.60;99.90
74901;DHT22;63461;51.416;6.758;2023-03-23T13:07:41;13.60;99.90
74901;DHT22;63461;51.416;6.758;2023-03-23T13:10:18;13.50;99.90
74901;DHT22;63461;51.416;6.758;2023-03-23T13:12:46;13.40;99.90
74901;DHT22;63461;51.416;6.758;2023-03-23T13:15:27;13.30;99.90
74901;DHT22;63461;51.416;6.758;2023-03-23T13:18:04;13.30;99.90
74901;DHT22;63461;51.416;6.758;2023-03-23T13:20:46;13.30;99.90
74901;DHT22;63461;51.416;6.758;2023-03-23T13:23:25;13.30;99.90
74901;DHT22;63461;51.416;6.758;2023-03-23T13:26:12;13.40;99.90
74901;DHT22;63461;51.416;6.758;2023-03-23T13:31:22;13.40;99.90
74901;DHT22;63461;51.416;6.758;2023-03-23T13:33:53;13.40;99.90
74901;DHT22;63461;51.416;6.758;2023-03-23T13:36:38;13.50;99.90
74901;DHT22;63461;51.416;6.758;2023-03-23T13:39:16;13.70;99.90
74901;DHT22;63461;51.416;6.758;2023-03-23T13:44:54;13.80;99.90
74901;DHT22;63461;51.416;6.758;2023-03-23T13:50:05;14.00;99.90
74901;DHT22;63461;51.416;6.758;2023-03-23T13:57:58;14.10;99.90
74901;DHT22;63461;51.416;6.758;2023-03-23T14:03:23;14.20;99.90
74901;DHT22;63461;51.416;6.758;2023-03-23T14:10:56;14.30;99.90
74901;DHT22;63461;51.416;6.758;2023-03-23T14:14:01;14.30;99.90
74901;DHT22;63461;51.416;6.758;2023-03-23T14:16:43;14.30;99.90
74901;DHT22;63461;51.416;6.758;2023-03-23T14:19:27;14.50;99.90
74901;DHT22;63461;51.416;6.758;2023-03-23T14:21:59;14.60;99.90
74901;DHT22;63461;51.416;6.758;2023-03-23T14:24:33;14.60;99.90
74901;DHT22;63461;51.416;6.758;2023-03-23T14:27:28;14.60;99.90
74901;DHT22;63461;51.416;6.758;2023-03-23T14:30:14;14.50;99.90
74901;DHT22;63461;51.416;6.758;2023-03-23T14:32:40;14.50;99.90
74901;DHT22;63461;51.416;6.758;2023-03-23T14:35:12;14.50;99.90
74901;DHT22;63461;51.416;6.758;2023-03-23T14:37:39;14.60;99.90
74901;DHT22;63461;51.416;6.758;2023-03-23T14:40:05;14.30;99.90
74901;DHT22;63461;51.416;6.758;2023-03-23T14:42:35;14.30;99.90
74901;DHT22;63461;51.416;6.758;2023-03-23T14:45:04;14.40;99.90
74901;DHT22;63461;51.416;6.758;2023-03-23T14:47:42;14.30;99.90
74901;DHT22;63461;51.416;6.758;2023-03-23T14:50:40;14.40;99.90
74901;DHT22;63461;51.416;6.758;2023-03-23T14:53:31;14.60;99.90
74901;DHT22;63461;51.416;6.758;2023-03-23T14:56:01;14.60;99.90
74901;DHT22;63461;51.416;6.758;2023-03-23T14:58:29;14.50;99.90
74901;DHT22;63461;51.416;6.758;2023-03-23T15:00:59;14.50;99.90
74901;DHT22;63461;51.416;6.758;2023-03-23T15:03:30;14.50;99.90
74901;DHT22;63461;51.416;6.758;2023-03-23T15:06:03;14.50;99.90
74901;DHT22;63461;51.416;6.758;2023-03-23T15:08:32;14.50;99.90
74901;DHT22;63461;51.416;6.758;2023-03-23T15:13:27;14.60;99.90
74901;DHT22;63461;51.416;6.758;2023-03-23T15:16:02;14.70;99.90
74901;DHT22;63461;51.416;6.758;2023-03-23T15:18:34;14.70;99.90
74901;DHT22;63461;51.416;6.758;2023-03-23T15:21:09;14.60;99.90
74901;DHT22;63461;51.416;6.758;2023-03-23T15:23:41;14.50;99.90
74901;DHT22;63461;51.416;6.758;2023-03-23T15:26:28;14.50;99.90
74901;DHT22;63461;51.416;6.758;2023-03-23T15:29:15;14.50;99.90
74901;DHT22;63461;51.416;6.758;2023-03-23T15:31:45;14.40;99.90
74901;DHT22;63461;51.416;6.758;2023-03-23T15:34:16;14.40;99.90
74901;DHT22;63461;51.416;6.758;2023-03-23T15:36:43;14.40;99.90
74901;DHT22;63461;51.416;6.758;2023-03-23T15:39:12;14.30;99.90
74901;DHT22;63461;51.416;6.758;2023-03-23T15:41:49;14.30;99.90
74901;DHT22;63461;51.416;6.758;2023-03-23T15:44:41;14.30;99.90
74901;DHT22;63461;51.416;6.758;2023-03-23T15:47:18;14.30;99.90
74901;DHT22;63461;51.416;6.758;2023-03-23T15:49:46;14.20;99.90
74901;DHT22;63461;51.416;6.758;2023-03-23T15:52:13;14.20;99.90
74901;DHT22;63461;51.416;6.758;2023-03-23T15:54:46;14.20;99.90
74901;DHT22;63461;51.416;6.758;2023-03-23T15:57:12;14.20;99.90
74901;DHT22;63461;51.416;6.758;2023-03-23T15:59:38;14.20;99.90
74901;DHT22;63461;51.416;6.758;2023-03-23T16:02:04;14.20;99.90
74901;DHT22;63461;51.416;6.758;2023-03-23T16:04:33;14.20;99.90
74901;DHT22;63461;51.416;6.758;2023-03-23T16:07:02;14.20;99.90
74901;DHT22;63461;51.416;6.758;2023-03-23T16:09:31;14.20;99.90
74901;DHT22;63461;51.416;6.758;2023-03-23T16:12:00;14.20;99.90
74901;DHT22;63461;51.416;6.758;2023-03-23T16:14:29;14.20;99.90
74901;DHT22;63461;51.416;6.758;2023-03-23T16:16:58;14.20;99.90
74901;DHT22;63461;51.416;6.758;2023-03-23T16:19:32;14.20;99.90
74901;DHT22;63461;51.416;6.758;2023-03-23T16:22:04;14.20;99.90
74901;DHT22;63461;51.416;6.758;2023-03-23T16:24:30;14.20;99.90
74901;DHT22;63461;51.416;6.758;2023-03-23T16:27:00;14.10;99.90
74901;DHT22;63461;51.416;6.758;2023-03-23T16:29:28;14.20;99.90
74901;DHT22;63461;51.416;6.758;2023-03-23T16:31:57;14.20;99.90
74901;DHT22;63461;51.416;6.758;2023-03-23T16:34:23;14.10;99.90
74901;DHT22;63461;51.416;6.758;2023-03-23T16:36:49;14.10;99.90
74901;DHT22;63461;51.416;6.758;2023-03-23T16:39:18;14.10;99.90
74901;DHT22;63461;51.416;6.758;2023-03-23T16:41:44;14.10;99.90
74901;DHT22;63461;51.416;6.758;2023-03-23T16:44:10;14.10;99.90
74901;DHT22;63461;51.416;6.758;2023-03-23T16:46:40;14.10;99.90
74901;DHT22;63461;51.416;6.758;2023-03-23T16:49:06;14.10;99.90
74901;DHT22;63461;51.416;6.758;2023-03-23T16:51:34;14.20;99.90
74901;DHT22;63461;51.416;6.758;2023-03-23T16:54:00;14.20;99.90
74901;DHT22;63461;51.416;6.758;2023-03-23T16:56:26;14.20;99.90
74901;DHT22;63461;51.416;6.758;2023-03-23T16:58:58;14.10;99.90
74901;DHT22;63461;51.416;6.758;2023-03-23T17:01:33;14.20;99.90
74901;DHT22;63461;51.416;6.758;2023-03-23T17:03:59;14.20;99.90
74901;DHT22;63461;51.416;6.758;2023-03-23T17:06:28;14.10;99.90
74901;DHT22;63461;51.416;6.758;2023-03-23T17:08:59;14.10;99.90
74901;DHT22;63461;51.416;6.758;2023-03-23T17:11:31;14.10;99.90
74901;DHT22;63461;51.416;6.758;2023-03-23T17:13:57;14.10;99.90
74901;DHT22;63461;51.416;6.758;2023-03-23T17:16:26;14.10;99.90
74901;DHT22;63461;51.416;6.758;2023-03-23T17:18:55;14.00;99.90
74901;DHT22;63461;51.416;6.758;2023-03-23T17:21:24;14.10;99.90
74901;DHT22;63461;51.416;6.758;2023-03-23T17:23:53;14.10;99.90
74901;DHT22;63461;51.416;6.758;2023-03-23T17:26:22;14.00;99.90
74901;DHT22;63461;51.416;6.758;2023-03-23T17:28:48;14.00;99.90
74901;DHT22;63461;51.416;6.758;2023-03-23T17:31:14;14.00;99.90
74901;DHT22;63461;51.416;6.758;2023-03-23T17:33:40;14.00;99.90
74901;DHT22;63461;51.416;6.758;2023-03-23T17:36:07;14.00;99.90
74901;DHT22;63461;51.416;6.758;2023-03-23T17:38:33;14.00;99.90
74901;DHT22;63461;51.416;6.758;2023-03-23T17:41:00;13.90;99.90
74901;DHT22;63461;51.416;6.758;2023-03-23T17:43:28;13.90;99.90
74901;DHT22;63461;51.416;6.758;2023-03-23T17:45:54;13.90;99.90
74901;DHT22;63461;51.416;6.758;2023-03-23T17:48:20;13.90;99.90
74901;DHT22;63461;51.416;6.758;2023-03-23T17:50:48;13.90;99.90
74901;DHT22;63461;51.416;6.758;2023-03-23T17:53:14;13.80;99.90
74901;DHT22;63461;51.416;6.758;2023-03-23T17:55:40;13.80;99.90
74901;DHT22;63461;51.416;6.758;2023-03-23T17:58:08;13.70;99.90